Terminal Aerodrome Forecast
Issued by NWS

Home | Current Version | Previous Version | Text Only | Print | Product List | Glossary On
Versions: 1 2 3 4 5 6 7 8 9 10 11 12 13 14 15 16 17 18 19 20 21 22 23 24 25 26 27 28 29 30 31 32 33 34 35
000
FTUS42 KCAE 190200 AAA
TAFDNL
TAF AMD
KDNL 190254Z 1903/1924 VRB04KT P6SM FEW015 BKN120
     FM190600 VRB03KT P6SM BKN015
     FM190800 12004KT 4SM BR VCSH OVC006
     FM191000 13005KT 2SM -RA BR SCT003 OVC007
     FM191500 18010KT 4SM -SHRA OVC012
     FM191800 20011G18KT 5SM -SHRA BKN025 OVC040=

USA.gov is the U.S. government's official web portal to all federal, state and local government web resources and services.